Ekin, Indiana
Current Conditions -  °F | °C
As of 11:35 PM on Thursday 20 Nov 2014 (Local Time) from KTYQ Reporting Station
Clear Clear  
Wind Chill: -10°   Ceiling: Unl
Heat Index: -7°   Visibility: 10mi
Dew Point: -13°   Wind: 5mph
Humidity: 63%   Direction: 290°WNW
Pressure: 30.27"   Gusts: NA
Location:  40.1832°N, 85.9359°W
Report Text: KTYQ 210435Z AUTO 29004KT 10SM CLR M07/M13 A3027 RMK AO2 T10671127
Loading
Personal Weather Stations






























Interactive Weather Map New forecast layout! Learn more

10-Day Weather Forecast

Advertisements
Track Severe Weather on mobile